Forside
METAR-TAF:

METAR-TAF

Lufthavne :

Fond Du Lac County Airport

Fond du Lac, Wisconsin, USA

Breddekreds: 43-46-12N, længdekreds: 088-29-11W, højde: 246 m

Aktuelle vejr

Denne rapport blev lavet for 18 minutter siden, kl. 15:02 UTC
Vind 3 kt fra sydvest
Temperatur 11°C
Fugtighed 94%
Tryk 1008 hPa
Sigt: 16.1 km
Brudte skyer i en højde af 500 ft

METAR: KFLD 081502Z AUTO 22003KT 10SM BKN005 11/10 A2976 RMK AO2 CIG 003V007 T01110100

Tid: 10:20 (15:20 UTC)


TAF: fraværende

Vejrobservationer og prognoser fra mere end 4000 lufthavne (METAR og TAF).

De gule og røde prikker repræsenterer de meteorologiske stationer.

Flyt musen over at se navnet på stationen.

Så klik over at se vejr observationer og prognoser.

At skifte det kort: Klik på de grønne knapper med et sort kors for at zoome ind; på den grønne knap med en bindestreg for at zoome ud; eller på de grønne pile for tilstødende kort.


METAR-TAF: